Archival Weather

Norman Y Mineta San Jose Intl

San Jose, California (KSJC)

Report from: Wednesday, April 3, 2024 6:53 AM PDT
Current time: Tuesday, May 21, 2024 10:09 AM PDT

Current weather – Weather history – Daily summaries
Weather forecast

Temperature11.7°C (53.1°F)
Dew point8.3°C (46.9°F)
Winds 3 kts (1.5 m/s, 3.5 mph) East (100°)
Visibility10 mi. (16.1 km)
Clouds Ceiling: Overcast 1,200 ft. (366 m)
Altimeter30.21 in.Hg (1023 mB)
Relative humidity80 %
Density altitude-566 ft. (-173 m)
Sea-level pressure102.3 kPa (1023 mB, 30.21 in.Hg)
Remarks Automated weather observing station with precipitation discriminator
Flight conditions Marginal Visual Meteorological Conditions
Raw dataKSJC 031353Z 10003KT 10SM OVC012 12/08 A3021 RMK AO2 SLP230 T01170083
An error has occurred. This application may no longer respond until reloaded. Reload 🗙